A- A+ FrançaisEnglishEspañol中国

Services sur Internet Soldes sur Internet Des idées de cadeaux Météo Météo aéro

La météo à : Autours de vous Tarbes-Lourdes-PyrénéesCalais-DunkerqueSt-Etienne Boutheon Dinard-Pleurtuit-St-Malo

manche à air

La météo aéronautique pour les pilotes, la préparation du vol avec les METAR (METeorological Aerodrome Report, message d'observation des conditions météorologiques pour l'aviation) et Les TAF (Terminal Aerodrome Forecast : message de prévision à court terme des conditions météorologiques pour l'aviation). Et les autres ressources comme les VAC (Visual Approch Chart) et les NOTAM (Notice To Airman) pour préprer les vols.

Aéroport Mont Joli (Canada) / OACI CYYY/ IATA YYY

L'altitude de l'aéroport Mont Joli est de 52 m = 171 ft. Il est situé à proximité de Mont-Joli (Canada). La météo générale à 5 jours est disponible pour Mont-Joli situé à 3 km.

METAR de l'aéroport Mont Joli - CYYY

CYYY 101800Z 20013G19KT 6SM -SN OVC035 00/M02 A2970 RMK SC8 SLP062

Décodage du METAR de l'aéroport Mont Joli (CA)

METAR émis par CYYY le dimanche 10 novembre 2019 à 18:00 heure TU. Attention ce METAR est obsolète car il a été émis il y a 2 heure et 58 minutes.

La visibilité est de 9.7 km = 6 sm.

La température est de 0°C = 32 °F et le point rosée est de -2°C = 28 °F . Ce qui correspond à 86% d'humidité relative.

Le QNH est de 1006 hPa = 29.71 inHg

Vent de 13 kt = 24 km/h avec des rafales à 19 kt = 35 km/h, orienté à 200°.

Nuages : Couverture nuageuse soudée à 3500 ft = 1070 mètres.

-SN

RMK SC8 SLP062

TAF de l'aéroport Mont Joli - CYYY

CYYY 101339Z 1014/1102 20018G30KT P6SM SCT060 OVC100 FM101800 20020G30KT P6SM OVC040 TEMPO 1018/1102 5SM -SHSNRA BR OVC020 BECMG 1101/1102 28015G25KT RMK NXT FCST BY 102000Z

CYYY 101339Z 1014/1102 20018G30KT P6SM nuages épars à 060 couverture nuageuse soudée à 100 FM101800 20020G30KT P6SM couverture nuageuse soudée à 040 temporairement 1018/1102 5SM faible SHSNRA brume couverture nuageuse soudée à 020 devenant 1101/1102 28015G25KT remarques NXT trombe ST BY 102000Z

Aéroport à proximité de Mont Joli

Météo générale à 5 jours à Mont-Joli (3 km)Aéroport Rimouski (26 km)Aéroport Baie Comeau (58 km)Aéroport Matane (62 km)Aéroport Forestville (67 km)Aéroport Ste Anne Des Monts (135 km)Aéroport Riviere Du Loop (139 km)

Vue aérienne de l'aéroport Mont Joli

NOTAM de l'aéroport Mont Joli

Les NOTAM sont fournis sans aucune garantie de leur actualité. Le pilote est le seul responsable de la vérification de sa validité avant de l'utiliser opérationnellement pour préparer un vol ou l'utiliser lors de sa navigation.

NOTAM Obstacle (du jeudi 10 octobre 2019 à 09:01 au jeudi 5 décembre 2019 à 20:00)

K0059/19 NOTAMN
Q) CZUL/QOBCE/IV/M/AE/000/999/4837N06812W005
A) CYYY B) 1910100901 C) 1912052000
E) TREES 950FT BFR THR 06 AND 300FT RIGHT EXTENDED RCL
21FT AGL 170 AMSL
CREATED: 10 Oct 2019 00:30:00
SOURCE: CYHQYNYX

Sources des données